createdAt,value
2019-02-05T00:01:50.419Z,9.98
2019-02-05T00:03:51.913Z,10.20
2019-02-05T00:05:53.674Z,10.08
2019-02-05T00:07:55.279Z,13.10
2019-02-05T00:09:56.645Z,11.43
2019-02-05T00:11:58.056Z,11.50
2019-02-05T00:13:59.629Z,14.10
2019-02-05T00:16:01.108Z,16.37
2019-02-05T00:18:03.110Z,11.00
2019-02-05T00:20:04.981Z,8.68
2019-02-05T00:22:06.343Z,8.65
2019-02-05T00:24:07.752Z,10.60
2019-02-05T00:26:09.220Z,12.13
2019-02-05T00:28:10.599Z,15.18
2019-02-05T00:30:14.416Z,10.35
2019-02-05T00:32:16.173Z,8.80
2019-02-05T00:34:17.566Z,7.47
2019-02-05T00:36:18.975Z,9.13
2019-02-05T00:38:20.386Z,9.03
2019-02-05T00:40:22.051Z,10.30
2019-02-05T00:42:23.412Z,12.80
2019-02-05T00:44:24.809Z,12.58
2019-02-05T00:46:26.193Z,10.08
2019-02-05T00:48:27.581Z,9.40
2019-02-05T00:50:28.999Z,10.95
2019-02-05T00:52:30.454Z,10.43
2019-02-05T00:54:31.870Z,10.03
2019-02-05T00:56:33.349Z,9.88
2019-02-05T00:58:34.707Z,11.05
2019-02-05T01:00:36.060Z,11.43
2019-02-05T01:02:37.730Z,9.10
2019-02-05T01:04:39.136Z,11.75
2019-02-05T01:06:40.916Z,12.30
2019-02-05T01:08:42.308Z,9.35
2019-02-05T01:10:43.668Z,10.28
2019-02-05T01:12:45.326Z,11.30
2019-02-05T01:14:47.046Z,9.63
2019-02-05T01:16:48.405Z,9.58
2019-02-05T01:18:49.774Z,8.38
2019-02-05T01:20:51.298Z,10.03
2019-02-05T01:22:53.093Z,10.30
2019-02-05T01:24:54.478Z,9.75
2019-02-05T01:26:55.913Z,12.35
2019-02-05T01:28:57.511Z,9.15
2019-02-05T01:30:58.875Z,8.98
2019-02-05T01:33:00.263Z,9.65
2019-02-05T01:35:01.774Z,10.03
2019-02-05T01:37:03.303Z,9.50
2019-02-05T01:39:05.593Z,8.68
2019-02-05T01:41:07.388Z,13.08
2019-02-05T01:43:08.775Z,11.28
2019-02-05T01:45:14.080Z,10.35
2019-02-05T01:47:15.444Z,12.47
2019-02-05T01:49:16.958Z,10.82
2019-02-05T01:51:18.312Z,12.25
2019-02-05T01:53:19.690Z,10.32
2019-02-05T01:55:21.411Z,9.58
2019-02-05T01:57:22.782Z,9.78
2019-02-05T01:59:24.258Z,8.50
2019-02-05T02:01:25.646Z,10.20
2019-02-05T02:03:27.012Z,9.05
2019-02-05T02:05:28.508Z,9.58
2019-02-05T02:07:30.310Z,10.60
2019-02-05T02:09:31.678Z,10.20
2019-02-05T02:11:33.085Z,10.70
2019-02-05T02:13:34.458Z,7.95
2019-02-05T02:15:36.135Z,9.70
2019-02-05T02:17:37.659Z,7.10
2019-02-05T02:19:39.058Z,8.73
2019-02-05T02:21:40.424Z,9.63
2019-02-05T02:23:41.780Z,7.72
2019-02-05T02:25:43.190Z,8.90
2019-02-05T02:27:45.965Z,10.38
2019-02-05T02:29:47.330Z,8.55
2019-02-05T02:31:48.727Z,7.62
2019-02-05T02:33:50.083Z,9.08
2019-02-05T02:35:51.527Z,9.28
2019-02-05T02:37:52.942Z,7.55
2019-02-05T02:39:54.328Z,10.53
2019-02-05T02:41:55.709Z,6.65
2019-02-05T02:43:57.184Z,9.33
2019-02-05T02:45:58.552Z,6.58
2019-02-05T02:48:00.119Z,13.58
2019-02-05T02:50:03.610Z,6.45
2019-02-05T02:52:04.977Z,8.53
2019-02-05T02:54:06.388Z,11.08
2019-02-05T02:56:07.746Z,7.60
2019-02-05T02:58:09.138Z,7.30
2019-02-05T03:00:14.776Z,8.93
2019-02-05T03:02:16.151Z,9.70
2019-02-05T03:04:17.472Z,7.55
2019-02-05T03:06:18.899Z,9.53
2019-02-05T03:08:20.259Z,8.50
2019-02-05T03:10:27.544Z,7.03
2019-02-05T03:12:28.953Z,8.13
2019-02-05T03:14:30.319Z,8.10
2019-02-05T03:16:31.818Z,6.80
2019-02-05T03:18:33.196Z,7.80
2019-02-05T03:20:34.564Z,8.00
2019-02-05T03:22:36.000Z,9.85
2019-02-05T03:24:37.452Z,6.87
2019-02-05T03:26:38.829Z,7.75
2019-02-05T03:28:40.223Z,6.78
2019-02-05T03:30:41.621Z,7.25
2019-02-05T03:32:42.961Z,9.03
2019-02-05T03:34:44.370Z,6.00
2019-02-05T03:36:45.737Z,8.60
2019-02-05T03:38:47.132Z,7.62
2019-02-05T03:40:59.087Z,6.47
2019-02-05T03:43:00.741Z,7.28
2019-02-05T03:45:04.836Z,10.40
2019-02-05T03:47:06.241Z,7.40
2019-02-05T03:49:08.686Z,7.28
2019-02-05T03:51:29.446Z,8.38
2019-02-05T03:53:39.104Z,7.40
2019-02-05T03:56:18.063Z,8.95
2019-02-05T03:58:40.458Z,6.95
2019-02-05T04:00:58.982Z,7.60
2019-02-05T04:03:29.038Z,7.58
2019-02-05T04:05:54.156Z,7.10
2019-02-05T04:08:04.120Z,8.05
2019-02-05T04:10:35.528Z,7.62
2019-02-05T04:12:45.644Z,9.68
2019-02-05T04:15:22.441Z,9.23
2019-02-05T04:17:38.859Z,7.92
2019-02-05T04:20:13.955Z,10.68
2019-02-05T04:22:23.802Z,8.60
2019-02-05T04:24:53.712Z,7.40
2019-02-05T04:27:09.591Z,6.35
2019-02-05T04:29:22.742Z,8.38
2019-02-05T04:31:44.557Z,8.10
2019-02-05T04:34:12.509Z,8.65
2019-02-05T04:36:34.838Z,9.45
2019-02-05T04:38:50.527Z,8.08
2019-02-05T04:41:03.345Z,7.20
2019-02-05T04:43:16.190Z,8.83
2019-02-05T04:45:47.091Z,7.70
2019-02-05T04:48:33.889Z,9.28
2019-02-05T04:51:02.280Z,6.65
2019-02-05T04:53:30.078Z,7.28
2019-02-05T04:55:46.326Z,9.05
2019-02-05T04:58:25.984Z,7.40
2019-02-05T05:00:48.105Z,7.85
2019-02-05T05:02:55.198Z,8.13
2019-02-05T05:05:45.678Z,6.80
2019-02-05T05:07:58.613Z,8.85
2019-02-05T05:10:00.014Z,7.15
2019-02-05T05:12:01.479Z,10.45
2019-02-05T05:14:04.139Z,8.25
2019-02-05T05:16:05.570Z,10.25
2019-02-05T05:18:06.977Z,8.48
2019-02-05T05:20:09.977Z,6.83
2019-02-05T05:22:11.472Z,7.42
2019-02-05T05:24:12.970Z,6.58
2019-02-05T05:26:14.462Z,9.98
2019-02-05T05:28:16.151Z,10.72
2019-02-05T05:30:17.719Z,7.55
2019-02-05T05:32:19.620Z,8.45
2019-02-05T05:34:21.023Z,6.65
2019-02-05T05:36:22.444Z,6.08
2019-02-05T05:38:23.826Z,8.28
2019-02-05T05:40:25.259Z,7.53
2019-02-05T05:42:26.686Z,7.33
2019-02-05T05:44:28.151Z,5.35
2019-02-05T05:46:29.550Z,7.50
2019-02-05T05:48:31.211Z,6.75
2019-02-05T05:50:32.604Z,7.17
2019-02-05T05:52:33.990Z,8.70
2019-02-05T05:54:35.459Z,11.97
2019-02-05T05:56:36.815Z,8.43
2019-02-05T05:58:38.212Z,5.90
2019-02-05T06:00:39.642Z,6.80
2019-02-05T06:02:41.049Z,8.63
2019-02-05T06:04:42.449Z,9.33
2019-02-05T06:06:43.849Z,9.33
2019-02-05T06:08:45.545Z,7.15
2019-02-05T06:10:46.936Z,7.80
2019-02-05T06:12:48.357Z,6.65
2019-02-05T06:14:49.745Z,9.30
2019-02-05T06:16:51.161Z,7.83
2019-02-05T06:18:52.561Z,6.33
2019-02-05T06:20:53.958Z,9.28
2019-02-05T06:22:57.267Z,8.68
2019-02-05T06:24:58.663Z,9.10
2019-02-05T06:27:00.490Z,11.85
2019-02-05T06:29:01.901Z,8.23
2019-02-05T06:31:03.276Z,5.70
2019-02-05T06:33:04.784Z,7.22
2019-02-05T06:35:07.026Z,8.63
2019-02-05T06:37:08.432Z,6.70
2019-02-05T06:39:09.826Z,7.28
2019-02-05T06:41:11.398Z,9.93
2019-02-05T06:43:12.982Z,8.55
2019-02-05T06:45:14.725Z,6.90
2019-02-05T06:47:16.106Z,7.12
2019-02-05T06:49:17.477Z,7.08
2019-02-05T06:51:19.200Z,7.55
2019-02-05T06:53:20.586Z,6.70
2019-02-05T06:55:21.973Z,6.17
2019-02-05T06:57:23.641Z,6.35
2019-02-05T06:59:25.230Z,7.83
2019-02-05T07:01:26.727Z,8.78
2019-02-05T07:03:28.140Z,9.40
2019-02-05T07:05:29.532Z,8.78
2019-02-05T07:07:30.928Z,8.40
2019-02-05T07:09:32.468Z,10.88
2019-02-05T07:11:33.850Z,7.62
2019-02-05T07:13:35.232Z,7.22
2019-02-05T07:15:36.661Z,9.45
2019-02-05T07:17:48.940Z,7.53
2019-02-05T07:19:41.539Z,13.35
2019-02-05T07:21:42.996Z,8.08
2019-02-05T07:23:44.614Z,9.53
2019-02-05T07:25:46.042Z,11.65
2019-02-05T07:27:47.627Z,9.68
2019-02-05T07:29:49.070Z,8.00
2019-02-05T07:31:50.508Z,6.87
2019-02-05T07:33:51.899Z,8.60
2019-02-05T07:35:53.515Z,7.80
2019-02-05T07:37:54.930Z,13.53
2019-02-05T07:39:56.405Z,7.60
2019-02-05T07:41:58.013Z,7.45
2019-02-05T07:43:59.443Z,10.70
2019-02-05T07:46:00.846Z,13.83
2019-02-05T07:48:03.135Z,7.17
2019-02-05T07:50:15.618Z,10.98
2019-02-05T07:52:17.268Z,7.12
2019-02-05T07:54:18.638Z,9.08
2019-02-05T07:56:20.039Z,7.87
2019-02-05T07:58:21.463Z,7.58
2019-02-05T08:00:28.855Z,7.10
2019-02-05T08:02:30.240Z,8.35
2019-02-05T08:04:31.681Z,8.10
2019-02-05T08:06:33.663Z,7.95
2019-02-05T08:08:35.141Z,8.23
2019-02-05T08:10:36.609Z,13.22
2019-02-05T08:12:38.204Z,12.95
2019-02-05T08:14:40.188Z,15.28
2019-02-05T08:16:41.555Z,9.18
2019-02-05T08:18:42.941Z,9.80
2019-02-05T08:20:44.345Z,7.15
2019-02-05T08:22:45.733Z,7.42
2019-02-05T08:24:47.161Z,8.10
2019-02-05T08:26:48.618Z,11.38
2019-02-05T08:28:50.081Z,6.65
2019-02-05T08:30:51.536Z,13.00
2019-02-05T08:32:53.067Z,11.22
2019-02-05T08:34:54.531Z,9.25
2019-02-05T08:36:56.093Z,10.85
2019-02-05T08:38:57.522Z,11.10
2019-02-05T08:40:58.863Z,8.08
2019-02-05T08:43:00.335Z,12.88
2019-02-05T08:45:02.932Z,12.05
2019-02-05T08:47:04.321Z,11.97
2019-02-05T08:49:05.955Z,10.65
2019-02-05T08:51:07.340Z,10.63
2019-02-05T08:53:08.714Z,10.38
2019-02-05T08:55:16.353Z,11.40
2019-02-05T08:57:17.754Z,15.83
2019-02-05T08:59:19.283Z,15.70
2019-02-05T09:01:21.070Z,13.03
2019-02-05T09:03:22.591Z,11.85
2019-02-05T09:05:24.182Z,15.10
2019-02-05T09:07:25.683Z,20.15
2019-02-05T09:09:27.184Z,13.60
2019-02-05T09:11:28.717Z,15.25
2019-02-05T09:13:30.147Z,16.85
2019-02-05T09:15:31.620Z,11.83
2019-02-05T09:17:33.008Z,12.47
2019-02-05T09:19:34.449Z,11.35
2019-02-05T09:21:35.854Z,13.13
2019-02-05T09:23:37.338Z,11.68
2019-02-05T09:25:38.804Z,11.38
2019-02-05T09:27:40.301Z,10.32
2019-02-05T09:29:41.943Z,13.08
2019-02-05T09:31:43.367Z,12.88
2019-02-05T09:33:44.743Z,13.72
2019-02-05T09:35:46.142Z,11.48
2019-02-05T09:37:47.967Z,10.72
2019-02-05T09:39:49.508Z,15.63
2019-02-05T09:41:51.202Z,12.05
2019-02-05T09:43:52.702Z,16.10
2019-02-05T09:45:54.262Z,12.45
2019-02-05T09:47:57.999Z,13.90
2019-02-05T09:49:59.398Z,10.30
2019-02-05T09:52:00.917Z,11.88
2019-02-05T09:54:03.213Z,11.08
2019-02-05T09:56:05.219Z,15.18
2019-02-05T09:58:06.721Z,17.25
2019-02-05T10:00:26.992Z,14.53
2019-02-05T10:02:28.924Z,13.40
2019-02-05T10:04:30.303Z,17.42
2019-02-05T10:06:31.919Z,12.55
2019-02-05T10:08:33.316Z,15.23
2019-02-05T10:10:35.275Z,12.45
2019-02-05T10:12:36.887Z,14.63
2019-02-05T10:14:38.263Z,17.55
2019-02-05T10:16:39.802Z,14.25
2019-02-05T10:18:41.639Z,18.57
2019-02-05T10:20:43.310Z,18.37
2019-02-05T10:22:47.106Z,14.47
2019-02-05T10:24:49.950Z,13.28
2019-02-05T10:26:51.672Z,14.28
2019-02-05T10:28:53.177Z,13.48
2019-02-05T10:30:54.718Z,14.33
2019-02-05T10:32:56.212Z,12.78
2019-02-05T10:34:57.741Z,12.18
2019-02-05T10:36:59.357Z,17.12
2019-02-05T10:39:00.747Z,17.90
2019-02-05T10:41:02.250Z,15.08
2019-02-05T10:43:04.473Z,16.80
2019-02-05T10:45:11.178Z,12.90
2019-02-05T10:47:12.715Z,16.05
2019-02-05T10:49:14.213Z,18.02
2019-02-05T10:51:15.702Z,13.28
2019-02-05T10:53:17.236Z,17.17
2019-02-05T10:55:21.339Z,20.17
2019-02-05T10:57:22.831Z,15.25
2019-02-05T10:59:24.270Z,16.60
2019-02-05T11:01:25.715Z,14.45
2019-02-05T11:03:27.219Z,14.58
2019-02-05T11:05:29.719Z,16.15
2019-02-05T11:07:31.260Z,14.13
2019-02-05T11:09:32.973Z,15.45
2019-02-05T11:11:34.358Z,18.35
2019-02-05T11:13:35.828Z,14.98
2019-02-05T11:15:37.273Z,18.17
2019-02-05T11:17:38.764Z,14.13
2019-02-05T11:19:40.203Z,12.65
2019-02-05T11:21:41.593Z,14.80
2019-02-05T11:23:42.997Z,14.28
2019-02-05T11:25:44.486Z,17.07
2019-02-05T11:27:46.184Z,15.88
2019-02-05T11:29:47.638Z,14.60
2019-02-05T11:31:49.112Z,19.67
2019-02-05T11:33:50.552Z,16.80
2019-02-05T11:35:52.155Z,15.83
2019-02-05T11:37:53.636Z,15.85
2019-02-05T11:39:55.084Z,14.18
2019-02-05T11:41:56.672Z,18.50
2019-02-05T11:43:58.085Z,15.70
2019-02-05T11:45:59.554Z,16.80
2019-02-05T11:48:05.154Z,14.95
2019-02-05T11:50:11.947Z,19.92
2019-02-05T11:52:13.450Z,15.20
2019-02-05T11:54:14.933Z,17.27
2019-02-05T11:56:16.423Z,15.55
2019-02-05T11:58:17.854Z,16.50
2019-02-05T12:00:32.350Z,17.77
2019-02-05T12:02:25.904Z,14.38
2019-02-05T12:04:27.384Z,14.90
2019-02-05T12:06:28.916Z,16.05
2019-02-05T12:08:30.538Z,16.05
2019-02-05T12:10:32.215Z,16.20
2019-02-05T12:12:33.717Z,15.93
2019-02-05T12:14:35.248Z,15.13
2019-02-05T12:16:36.783Z,15.98
2019-02-05T12:18:38.279Z,20.50
2019-02-05T12:20:39.766Z,19.32
2019-02-05T12:22:41.891Z,14.20
2019-02-05T12:24:43.369Z,15.30
2019-02-05T12:26:44.775Z,18.98
2019-02-05T12:28:46.333Z,17.00
2019-02-05T12:30:47.936Z,26.48
2019-02-05T12:32:49.432Z,14.93
2019-02-05T12:34:50.847Z,18.65
2019-02-05T12:36:52.246Z,17.48
2019-02-05T12:38:53.640Z,17.85
2019-02-05T12:40:55.282Z,16.48
2019-02-05T12:42:56.968Z,20.90
2019-02-05T12:44:58.348Z,18.37
2019-02-05T12:46:59.755Z,16.90
2019-02-05T12:49:01.271Z,17.15
2019-02-05T12:51:03.868Z,14.40
2019-02-05T12:53:05.389Z,15.65
2019-02-05T12:55:13.632Z,16.90
2019-02-05T12:57:11.909Z,16.55
2019-02-05T12:59:13.421Z,15.68
2019-02-05T13:01:14.851Z,18.20
2019-02-05T13:03:16.338Z,15.63
2019-02-05T13:05:18.287Z,16.63
2019-02-05T13:07:19.656Z,18.00
2019-02-05T13:09:21.083Z,17.00
2019-02-05T13:11:22.579Z,15.98
2019-02-05T13:13:23.978Z,19.10
2019-02-05T13:15:25.503Z,18.27
2019-02-05T13:17:26.904Z,17.85
2019-02-05T13:19:28.352Z,17.95
2019-02-05T13:21:29.802Z,17.62
2019-02-05T13:23:31.181Z,16.93
2019-02-05T13:25:33.084Z,19.42
2019-02-05T13:27:34.639Z,20.30
2019-02-05T13:29:36.071Z,18.12
2019-02-05T13:31:37.930Z,15.35
2019-02-05T13:33:39.471Z,14.47
2019-02-05T13:35:41.181Z,19.40
2019-02-05T13:37:42.587Z,18.80
2019-02-05T13:39:44.281Z,17.80
2019-02-05T13:41:45.763Z,16.10
2019-02-05T13:43:47.300Z,21.05
2019-02-05T13:45:48.869Z,15.30
2019-02-05T13:47:50.464Z,19.02
2019-02-05T13:49:51.835Z,25.75
2019-02-05T13:51:53.286Z,19.42
2019-02-05T13:53:54.682Z,19.12
2019-02-05T13:55:56.295Z,16.73
2019-02-05T13:57:58.148Z,18.25
2019-02-05T13:59:59.554Z,18.00
2019-02-05T14:02:00.999Z,17.48
2019-02-05T14:04:02.664Z,20.40
2019-02-05T14:06:04.155Z,15.30
2019-02-05T14:08:05.853Z,17.77
2019-02-05T14:10:15.461Z,20.32
2019-02-05T14:12:16.858Z,18.40
2019-02-05T14:14:18.233Z,18.92
2019-02-05T14:16:20.281Z,18.85
2019-02-05T14:18:22.864Z,17.65
2019-02-05T14:20:24.773Z,20.12
2019-02-05T14:22:26.211Z,19.62
2019-02-05T14:24:27.598Z,19.98
2019-02-05T14:26:29.015Z,20.15
2019-02-05T14:28:31.350Z,18.27
2019-02-05T14:30:37.571Z,16.00
2019-02-05T14:32:39.370Z,18.37
2019-02-05T14:34:40.836Z,18.82
2019-02-05T14:36:42.242Z,16.00
2019-02-05T14:38:43.634Z,18.05
2019-02-05T14:40:45.349Z,15.32
2019-02-05T14:42:46.771Z,17.82
2019-02-05T14:44:48.171Z,17.85
2019-02-05T14:46:49.600Z,16.85
2019-02-05T14:48:51.003Z,22.58
2019-02-05T14:50:52.494Z,17.75
2019-02-05T14:53:09.308Z,19.48
2019-02-05T14:55:10.952Z,15.72
2019-02-05T14:57:12.354Z,16.65
2019-02-05T14:59:13.814Z,17.87
2019-02-05T15:01:15.200Z,18.77
2019-02-05T15:03:16.581Z,18.52
2019-02-05T15:05:18.046Z,16.63
2019-02-05T15:07:19.505Z,18.62
2019-02-05T15:09:21.249Z,21.27
2019-02-05T15:11:22.771Z,20.97
2019-02-05T15:13:24.138Z,22.05
2019-02-05T15:15:27.577Z,20.70
2019-02-05T15:17:29.032Z,19.85
2019-02-05T15:19:30.507Z,18.70
2019-02-05T15:21:31.907Z,20.77
2019-02-05T15:23:33.400Z,24.37
2019-02-05T15:25:35.148Z,19.00
2019-02-05T15:27:36.540Z,19.62
2019-02-05T15:29:37.945Z,18.45
2019-02-05T15:31:39.376Z,18.45
2019-02-05T15:33:42.656Z,17.50
2019-02-05T15:35:55.841Z,18.67
2019-02-05T15:37:57.294Z,22.75
2019-02-05T15:39:58.693Z,19.10
2019-02-05T15:42:00.279Z,21.57
2019-02-05T15:44:01.653Z,21.65
2019-02-05T15:46:03.748Z,17.42
2019-02-05T15:48:05.213Z,18.15
2019-02-05T15:50:10.264Z,18.45
2019-02-05T15:52:11.694Z,19.10
2019-02-05T15:54:13.359Z,19.23
2019-02-05T15:56:14.973Z,18.85
2019-02-05T15:58:16.444Z,22.27
2019-02-05T16:00:21.345Z,19.35
2019-02-05T16:02:22.819Z,20.12
2019-02-05T16:04:24.627Z,19.05
2019-02-05T16:06:26.017Z,21.57
2019-02-05T16:08:27.564Z,23.98
2019-02-05T16:10:29.037Z,19.62
2019-02-05T16:12:30.825Z,18.98
2019-02-05T16:14:32.273Z,18.42
2019-02-05T16:16:33.677Z,17.50
2019-02-05T16:18:35.149Z,19.75
2019-02-05T16:20:36.523Z,19.23
2019-02-05T16:22:37.919Z,17.37
2019-02-05T16:24:39.382Z,20.02
2019-02-05T16:26:40.865Z,18.87
2019-02-05T16:28:42.408Z,18.95
2019-02-05T16:30:43.794Z,21.50
2019-02-05T16:32:45.652Z,23.95
2019-02-05T16:34:47.156Z,18.92
2019-02-05T16:36:48.830Z,19.25
2019-02-05T16:38:50.278Z,21.07
2019-02-05T16:40:51.670Z,16.93
2019-02-05T16:42:53.265Z,15.93
2019-02-05T16:44:54.719Z,21.80
2019-02-05T16:46:56.185Z,18.00
2019-02-05T16:48:57.696Z,18.00
2019-02-05T16:50:59.273Z,19.42
2019-02-05T16:53:00.938Z,17.95
2019-02-05T16:55:05.040Z,19.12
2019-02-05T16:57:06.564Z,22.00
2019-02-05T16:59:07.964Z,18.35
2019-02-05T17:01:09.404Z,18.92
2019-02-05T17:03:11.063Z,25.82
2019-02-05T17:05:14.369Z,24.07
2019-02-05T17:07:15.768Z,19.30
2019-02-05T17:09:17.370Z,23.22
2019-02-05T17:11:18.854Z,22.40
2019-02-05T17:13:20.243Z,20.48
2019-02-05T17:15:22.002Z,21.57
2019-02-05T17:17:23.486Z,21.87
2019-02-05T17:19:24.890Z,24.00
2019-02-05T17:21:26.349Z,19.98
2019-02-05T17:23:27.818Z,20.82
2019-02-05T17:25:29.317Z,22.25
2019-02-05T17:27:30.752Z,27.95
2019-02-05T17:29:32.422Z,18.92
2019-02-05T17:31:33.819Z,22.10
2019-02-05T17:33:35.286Z,26.15
2019-02-05T17:35:36.979Z,20.72
2019-02-05T17:37:38.671Z,22.58
2019-02-05T17:39:40.138Z,19.17
2019-02-05T17:41:41.545Z,25.85
2019-02-05T17:43:43.018Z,23.92
2019-02-05T17:45:44.468Z,23.02
2019-02-05T17:47:46.154Z,24.20
2019-02-05T17:49:47.550Z,23.60
2019-02-05T17:51:49.018Z,24.18
2019-02-05T17:53:50.379Z,21.60
2019-02-05T17:55:51.897Z,19.20
2019-02-05T17:57:53.352Z,26.85
2019-02-05T17:59:54.811Z,22.50
2019-02-05T18:01:56.266Z,25.43
2019-02-05T18:03:57.648Z,23.65
2019-02-05T18:05:59.114Z,25.15
2019-02-05T18:08:00.635Z,20.27
2019-02-05T18:10:05.202Z,24.23
2019-02-05T18:12:06.955Z,20.95
2019-02-05T18:14:08.404Z,21.40
2019-02-05T18:16:09.874Z,24.18
2019-02-05T18:18:11.613Z,23.00
2019-02-05T18:20:13.215Z,22.70
2019-02-05T18:22:14.666Z,19.55
2019-02-05T18:24:16.065Z,23.50
2019-02-05T18:26:17.524Z,29.20
2019-02-05T18:28:18.913Z,25.85
2019-02-05T18:30:30.044Z,22.80
2019-02-05T18:32:31.959Z,24.10
2019-02-05T18:34:34.080Z,26.55
2019-02-05T18:36:35.536Z,23.10
2019-02-05T18:38:37.170Z,23.65
2019-02-05T18:40:38.560Z,25.85
2019-02-05T18:42:39.961Z,28.30
2019-02-05T18:44:41.586Z,25.72
2019-02-05T18:46:42.985Z,24.90
2019-02-05T18:48:44.387Z,24.98
2019-02-05T18:50:45.838Z,26.85
2019-02-05T18:52:47.330Z,30.40
2019-02-05T18:54:48.811Z,27.50
2019-02-05T18:56:50.296Z,20.92
2019-02-05T18:58:51.681Z,27.73
2019-02-05T19:00:53.135Z,29.30
2019-02-05T19:02:54.519Z,24.60
2019-02-05T19:04:56.498Z,24.25
2019-02-05T19:06:57.878Z,25.55
2019-02-05T19:08:59.280Z,23.98
2019-02-05T19:11:00.806Z,25.25
2019-02-05T19:13:03.120Z,27.85
2019-02-05T19:15:10.219Z,28.42
2019-02-05T19:17:11.916Z,25.25
2019-02-05T19:19:15.183Z,28.07
2019-02-05T19:21:16.587Z,28.27
2019-02-05T19:23:18.056Z,24.75
2019-02-05T19:25:24.230Z,27.32
2019-02-05T19:27:25.608Z,27.22
2019-02-05T19:29:27.135Z,27.48
2019-02-05T19:31:29.969Z,32.50
2019-02-05T19:33:31.362Z,28.57
2019-02-05T19:35:32.825Z,25.17
2019-02-05T19:40:01.454Z,25.25
2019-02-05T19:42:22.767Z,27.75
2019-02-05T19:47:27.006Z,29.92
2019-02-05T19:49:48.515Z,29.18
2019-02-05T19:52:09.883Z,25.17
2019-02-05T19:54:31.236Z,26.80
2019-02-05T19:56:52.581Z,27.10
2019-02-05T19:59:14.261Z,29.02
2019-02-05T20:01:35.605Z,28.05
2019-02-05T20:03:56.870Z,25.32
2019-02-05T20:06:18.176Z,30.27
2019-02-05T20:08:39.431Z,28.02
2019-02-05T20:11:00.712Z,25.88
2019-02-05T20:13:22.046Z,27.25
2019-02-05T20:15:43.384Z,31.30
2019-02-05T20:18:05.160Z,26.12
2019-02-05T20:20:26.734Z,25.35
2019-02-05T20:22:48.260Z,25.57
2019-02-05T20:25:29.422Z,26.17
2019-02-05T20:27:50.745Z,24.70
2019-02-05T20:30:34.050Z,23.18
2019-02-05T20:32:55.325Z,24.63
2019-02-05T20:35:16.725Z,22.42
2019-02-05T20:37:38.071Z,22.67
2019-02-05T20:39:59.752Z,23.95
2019-02-05T20:42:14.607Z,18.55
2019-02-05T20:44:35.935Z,20.80
2019-02-05T20:47:18.998Z,22.93
2019-02-05T20:49:40.314Z,20.82
2019-02-05T20:52:01.577Z,17.20
2019-02-05T20:54:22.858Z,24.23
2019-02-05T20:56:44.435Z,21.95
2019-02-05T20:59:05.706Z,21.17
2019-02-05T21:01:27.090Z,23.92
2019-02-05T21:03:48.638Z,24.77
2019-02-05T21:06:10.101Z,22.80
2019-02-05T21:08:31.362Z,22.77
2019-02-05T21:10:52.687Z,22.00
2019-02-05T21:13:13.956Z,21.87
2019-02-05T21:15:35.209Z,23.57
2019-02-05T21:17:56.536Z,23.45
2019-02-05T21:20:39.648Z,23.20
2019-02-05T21:23:01.024Z,22.20
2019-02-05T21:25:44.148Z,20.23
2019-02-05T21:28:05.518Z,18.42
2019-02-05T21:30:26.983Z,22.75
2019-02-05T21:32:48.305Z,19.05
2019-02-05T21:35:09.578Z,14.63
2019-02-05T21:37:31.192Z,18.07
2019-02-05T21:40:02.044Z,17.85
2019-02-05T21:42:35.932Z,20.72
2019-02-05T21:44:50.963Z,21.10
2019-02-05T21:47:12.250Z,22.00
2019-02-05T21:49:33.683Z,19.98
2019-02-05T21:51:54.955Z,18.73
2019-02-05T21:54:16.285Z,21.15
2019-02-05T21:56:37.703Z,19.73
2019-02-05T21:58:59.091Z,17.32
2019-02-05T22:01:20.402Z,24.63
2019-02-05T22:03:41.772Z,18.55
2019-02-05T22:06:03.324Z,17.62
2019-02-05T22:08:24.700Z,20.17
2019-02-05T22:10:46.052Z,16.25
2019-02-05T22:13:07.437Z,16.02
2019-02-05T22:15:28.888Z,16.10
2019-02-05T22:17:50.235Z,15.68
2019-02-05T22:20:31.551Z,15.90
2019-02-05T22:23:12.709Z,18.70
2019-02-05T22:25:34.138Z,16.73
2019-02-05T22:27:55.735Z,16.05
2019-02-05T22:30:37.336Z,15.53
2019-02-05T22:32:59.116Z,16.12
2019-02-05T22:35:20.475Z,13.83
2019-02-05T22:37:42.198Z,22.87
2019-02-05T22:39:58.500Z,16.20
2019-02-05T22:42:19.764Z,21.70
2019-02-05T22:44:39.944Z,17.35
2019-02-05T22:47:00.182Z,16.73
2019-02-05T22:49:01.674Z,14.55
2019-02-05T22:51:03.366Z,17.17
2019-02-05T22:53:07.750Z,24.02
2019-02-05T22:55:09.523Z,14.13
2019-02-05T22:57:11.092Z,17.35
2019-02-05T22:59:13.068Z,15.38
2019-02-05T23:01:25.986Z,18.00
2019-02-05T23:03:38.969Z,17.87
2019-02-05T23:06:08.864Z,12.78
2019-02-05T23:08:10.547Z,14.13
2019-02-05T23:10:17.644Z,11.93
2019-02-05T23:12:27.764Z,13.78
2019-02-05T23:14:29.242Z,14.87
2019-02-05T23:16:30.651Z,17.57
2019-02-05T23:18:32.150Z,18.62
2019-02-05T23:20:33.520Z,14.85
2019-02-05T23:22:34.909Z,19.87
2019-02-05T23:24:36.541Z,19.02
2019-02-05T23:26:37.920Z,15.93
2019-02-05T23:28:39.304Z,15.00
2019-02-05T23:30:41.229Z,19.95
2019-02-05T23:32:43.617Z,16.55
2019-02-05T23:34:45.000Z,19.32
2019-02-05T23:36:46.365Z,20.35
2019-02-05T23:38:47.794Z,15.65
2019-02-05T23:40:49.219Z,24.30
2019-02-05T23:42:50.596Z,21.17
2019-02-05T23:44:52.279Z,21.25
2019-02-05T23:46:53.694Z,22.42
2019-02-05T23:48:55.072Z,21.85
2019-02-05T23:50:56.850Z,21.00
2019-02-05T23:52:58.328Z,20.88
2019-02-05T23:54:59.910Z,21.12
2019-02-05T23:57:01.423Z,18.52
2019-02-05T23:59:03.429Z,21.20
